Time;durP1;ratioP1;P1;durP2;ratioP2;P2;SDS_P1;SDS_P2;PMS_P1;PMS_P2;Temp;Humidity;BMP_temperature;BMP_pressure;BME280_temperature;BME280_humidity;BME280_pressure;Samples;Min_cycle;Max_cycle;Signal;HPM_P1;HPM_P2
2021/07/07 00:02:05;;;;;;;8.15;2.63;;;;;;;;;;5007012;28;20061;-56
2021/07/07 00:04:31;;;;;;;8.85;2.63;;;;;;;;;;5003577;28;20046;-59
2021/07/07 00:06:58;;;;;;;8.23;2.20;;;;;;;;;;5003482;28;20053;-57
2021/07/07 00:09:24;;;;;;;6.78;2.05;;;;;;;;;;5022452;28;20037;-56
2021/07/07 00:11:52;;;;;;;3.60;1.40;;;;;;;;;;5018952;28;20033;-57
2021/07/07 00:14:18;;;;;;;6.17;2.07;;;;;;;;;;5041513;28;20092;-57
2021/07/07 00:16:45;;;;;;;5.93;2.60;;;;;;;;;;5002122;28;20046;-57
2021/07/07 00:19:13;;;;;;;6.65;2.60;;;;;;;;;;5005888;28;20044;-56
2021/07/07 00:21:40;;;;;;;5.20;2.37;;;;;;;;;;5001578;28;20045;-57
2021/07/07 00:24:06;;;;;;;5.35;2.10;;;;;;;;;;5004705;28;20053;-55
2021/07/07 00:26:33;;;;;;;8.07;1.92;;;;;;;;;;5000163;28;20052;-58
2021/07/07 00:28:59;;;;;;;5.22;1.88;;;;;;;;;;5002964;28;20038;-57
2021/07/07 00:31:26;;;;;;;4.00;1.55;;;;;;;;;;5009002;28;20111;-57
2021/07/07 00:33:52;;;;;;;7.85;1.55;;;;;;;;;;5023127;28;20041;-57
2021/07/07 00:36:24;;;;;;;7.18;1.50;;;;;;;;;;5009817;28;20046;-55
2021/07/07 00:38:52;;;;;;;5.70;1.20;;;;;;;;;;5004197;28;20053;-58
2021/07/07 00:41:20;;;;;;;4.25;1.83;;;;;;;;;;4999833;28;20042;-57
2021/07/07 00:43:47;;;;;;;;;;;;;;;;;;5004083;28;20034;-57
2021/07/07 00:46:13;;;;;;;6.18;2.30;;;;;;;;;;4991045;28;20008;-57
2021/07/07 00:48:40;;;;;;;6.25;2.05;;;;;;;;;;4983254;28;20042;-57
2021/07/07 00:51:06;;;;;;;4.47;1.45;;;;;;;;;;4979403;28;20050;-57
2021/07/07 00:53:34;;;;;;;4.47;1.60;;;;;;;;;;5001730;28;20112;-58
2021/07/07 00:56:01;;;;;;;3.50;1.47;;;;;;;;;;5002595;28;20173;-57
2021/07/07 00:58:27;;;;;;;8.68;1.42;;;;;;;;;;4985766;28;20303;-58
2021/07/07 01:00:56;;;;;;;3.25;1.30;;;;;;;;;;5003275;28;20120;-57
2021/07/07 01:03:22;;;;;;;9.77;1.55;;;;;;;;;;4996463;28;20837;-58
2021/07/07 01:05:49;;;;;;;8.02;1.38;;;;;;;;;;5001614;28;20057;-59
2021/07/07 01:08:16;;;;;;;8.85;1.70;;;;;;;;;;4986124;28;20108;-58
2021/07/07 01:10:44;;;;;;;4.93;1.52;;;;;;;;;;4998115;28;20026;-57
2021/07/07 01:13:12;;;;;;;3.58;1.30;;;;;;;;;;5008712;28;20074;-58
2021/07/07 01:15:41;;;;;;;2.67;1.50;;;;;;;;;;5022028;28;20456;-58
2021/07/07 01:18:07;;;;;;;8.27;1.70;;;;;;;;;;5013316;28;20049;-57
2021/07/07 01:20:34;;;;;;;6.28;1.40;;;;;;;;;;5023612;28;20038;-55
2021/07/07 01:23:03;;;;;;;6.03;1.70;;;;;;;;;;5006827;28;20030;-58
2021/07/07 01:25:29;;;;;;;;;;;;;;;;;;4982751;28;20026;-57
2021/07/07 01:27:57;;;;;;;4.22;1.50;;;;;;;;;;4980057;28;19925;-57
2021/07/07 01:30:24;;;;;;;5.23;1.37;;;;;;;;;;4983490;28;20049;-58
2021/07/07 01:32:50;;;;;;;8.35;1.50;;;;;;;;;;4981630;28;20312;-58
2021/07/07 01:35:17;;;;;;;6.15;1.58;;;;;;;;;;4983605;28;20043;-57
2021/07/07 01:37:44;;;;;;;4.93;1.50;;;;;;;;;;4980361;28;20042;-58
2021/07/07 01:40:15;;;;;;;3.83;1.30;;;;;;;;;;5006872;28;20045;-56
2021/07/07 01:42:41;;;;;;;4.43;1.40;;;;;;;;;;5003810;28;20053;-57
2021/07/07 01:45:09;;;;;;;2.53;1.50;;;;;;;;;;4998386;28;20042;-57
2021/07/07 01:47:35;;;;;;;5.65;1.70;;;;;;;;;;5002575;28;20046;-58
2021/07/07 01:50:02;;;;;;;4.88;1.42;;;;;;;;;;4983629;28;20136;-57
2021/07/07 01:52:29;;;;;;;6.13;1.95;;;;;;;;;;4984469;28;20054;-58
2021/07/07 01:54:55;;;;;;;11.55;2.03;;;;;;;;;;4990966;28;20164;-57
2021/07/07 01:57:23;;;;;;;7.40;2.38;;;;;;;;;;5002749;28;20382;-57
2021/07/07 01:59:49;;;;;;;9.77;3.70;;;;;;;;;;4999358;28;20050;-57
2021/07/07 02:02:16;;;;;;;11.75;3.75;;;;;;;;;;4999183;28;20296;-55
2021/07/07 02:04:43;;;;;;;7.95;3.20;;;;;;;;;;4987244;28;20042;-57
2021/07/07 02:07:09;;;;;;;9.35;3.10;;;;;;;;;;4982496;28;20050;-56
2021/07/07 02:09:37;;;;;;;14.85;2.92;;;;;;;;;;4981464;28;20050;-55
2021/07/07 02:12:04;;;;;;;8.57;2.75;;;;;;;;;;4982479;28;20072;-57
2021/07/07 02:14:32;;;;;;;7.65;2.50;;;;;;;;;;4980114;28;20042;-55
2021/07/07 02:16:58;;;;;;;4.60;1.90;;;;;;;;;;5003069;28;20046;-57
2021/07/07 02:19:24;;;;;;;6.93;2.10;;;;;;;;;;4997626;28;20120;-56
2021/07/07 02:21:51;;;;;;;6.50;2.30;;;;;;;;;;4981424;28;20063;-57
2021/07/07 02:24:17;;;;;;;8.05;2.67;;;;;;;;;;4998257;28;20190;-58
2021/07/07 02:26:44;;;;;;;7.95;3.22;;;;;;;;;;5014015;28;20247;-55
2021/07/07 02:29:10;;;;;;;6.55;3.00;;;;;;;;;;5001724;28;20100;-56
2021/07/07 02:31:40;;;;;;;11.40;2.97;;;;;;;;;;4998661;28;20050;-56
2021/07/07 02:34:07;;;;;;;6.82;2.80;;;;;;;;;;4999827;28;20030;-57
2021/07/07 02:36:33;;;;;;;7.63;2.38;;;;;;;;;;4999324;28;20046;-58
2021/07/07 02:39:00;;;;;;;7.57;2.10;;;;;;;;;;5007009;28;20041;-56
2021/07/07 02:41:26;;;;;;;3.45;1.70;;;;;;;;;;5010162;28;20046;-57
2021/07/07 02:43:53;;;;;;;6.38;1.60;;;;;;;;;;5001849;28;20057;-53
2021/07/07 02:46:19;;;;;;;7.38;1.70;;;;;;;;;;5003877;28;20061;-57
2021/07/07 02:48:47;;;;;;;3.58;1.55;;;;;;;;;;5020602;28;20038;-55
2021/07/07 02:51:17;;;;;;;9.63;1.80;;;;;;;;;;5016809;28;20049;-56
2021/07/07 02:53:43;;;;;;;4.95;1.70;;;;;;;;;;5019516;28;20216;-58
2021/07/07 02:56:10;;;;;;;2.60;1.50;;;;;;;;;;5017235;28;20065;-56
2021/07/07 02:58:36;;;;;;;4.32;1.70;;;;;;;;;;5019277;28;20034;-55
2021/07/07 03:01:03;;;;;;;5.95;1.90;;;;;;;;;;5016796;28;20038;-57
2021/07/07 03:03:29;;;;;;;7.03;1.90;;;;;;;;;;5020747;28;20033;-54
2021/07/07 03:05:57;;;;;;;3.95;1.75;;;;;;;;;;5020602;28;20049;-53
2021/07/07 03:08:24;;;;;;;5.72;2.00;;;;;;;;;;4994110;28;20046;-56
2021/07/07 03:10:52;;;;;;;6.45;1.63;;;;;;;;;;5019100;28;20052;-58
2021/07/07 03:13:20;;;;;;;3.40;1.60;;;;;;;;;;5005185;28;20041;-56
2021/07/07 03:15:46;;;;;;;5.38;1.65;;;;;;;;;;5005652;28;20038;-51
2021/07/07 03:18:14;;;;;;;6.07;1.52;;;;;;;;;;5004816;28;20042;-55
2021/07/07 03:20:41;;;;;;;2.97;1.50;;;;;;;;;;5004397;28;20061;-55
2021/07/07 03:23:10;;;;;;;4.38;1.90;;;;;;;;;;4999025;28;20193;-55
2021/07/07 03:25:37;;;;;;;5.65;1.65;;;;;;;;;;5004004;28;20030;-55
2021/07/07 03:28:03;;;;;;;10.48;2.03;;;;;;;;;;5000615;28;20038;-55
2021/07/07 03:30:31;;;;;;;8.07;1.92;;;;;;;;;;5003659;28;20124;-54
2021/07/07 03:32:58;;;;;;;4.63;1.75;;;;;;;;;;5000335;28;20037;-56
2021/07/07 03:35:25;;;;;;;3.47;1.75;;;;;;;;;;5000496;28;20352;-51
2021/07/07 03:37:52;;;;;;;7.25;1.70;;;;;;;;;;4983554;28;20042;-57
2021/07/07 03:40:20;;;;;;;3.90;1.75;;;;;;;;;;5005808;28;20119;-55
2021/07/07 03:42:47;;;;;;;5.90;1.90;;;;;;;;;;5018597;28;20131;-56
2021/07/07 03:45:15;;;;;;;4.55;1.73;;;;;;;;;;5022825;28;20057;-56
2021/07/07 03:47:41;;;;;;;6.72;1.92;;;;;;;;;;5021602;28;20041;-54
2021/07/07 03:50:09;;;;;;;5.03;2.03;;;;;;;;;;5016989;28;20045;-57
2021/07/07 03:52:36;;;;;;;2.77;1.80;;;;;;;;;;5022798;28;20037;-55
2021/07/07 03:55:02;;;;;;;5.20;1.98;;;;;;;;;;5019266;28;20074;-55
2021/07/07 03:57:30;;;;;;;4.05;1.90;;;;;;;;;;5003770;28;20062;-55
2021/07/07 03:59:57;;;;;;;4.13;2.03;;;;;;;;;;4998724;28;20056;-55
2021/07/07 04:02:23;;;;;;;9.80;2.10;;;;;;;;;;5003773;28;20038;-58
2021/07/07 04:04:50;;;;;;;4.68;2.17;;;;;;;;;;5026961;28;20126;-55
2021/07/07 04:07:16;;;;;;;4.88;2.20;;;;;;;;;;5044830;28;20045;-55
2021/07/07 04:09:43;;;;;;;9.80;2.17;;;;;;;;;;5020746;28;20041;-57
2021/07/07 04:12:14;;;;;;;6.15;2.15;;;;;;;;;;5025211;28;20091;-54
2021/07/07 04:14:42;;;;;;;8.48;2.55;;;;;;;;;;5023091;28;20049;-56
2021/07/07 04:17:09;;;;;;;4.57;2.00;;;;;;;;;;5044521;28;20033;-55
2021/07/07 04:19:35;;;;;;;6.70;2.53;;;;;;;;;;5039276;28;20044;-52
2021/07/07 04:22:02;;;;;;;9.23;2.45;;;;;;;;;;5042861;28;20037;-57
2021/07/07 04:24:28;;;;;;;6.55;2.90;;;;;;;;;;5036664;28;20041;-56
2021/07/07 04:26:55;;;;;;;7.45;2.42;;;;;;;;;;4995880;28;20034;-55
2021/07/07 04:29:21;;;;;;;4.88;2.15;;;;;;;;;;5004929;28;20038;-54
2021/07/07 04:31:51;;;;;;;8.63;2.47;;;;;;;;;;5023107;28;20040;-56
2021/07/07 04:34:17;;;;;;;8.05;3.05;;;;;;;;;;5022421;28;20073;-53
2021/07/07 04:36:44;;;;;;;4.65;2.50;;;;;;;;;;5001885;28;20054;-55
2021/07/07 04:39:10;;;;;;;7.85;2.65;;;;;;;;;;5032039;28;20037;-54
2021/07/07 04:41:37;;;;;;;10.75;2.78;;;;;;;;;;5038197;28;20049;-53
2021/07/07 04:44:03;;;;;;;8.57;2.35;;;;;;;;;;5042665;28;20037;-53
2021/07/07 04:46:30;;;;;;;9.93;3.28;;;;;;;;;;5039035;28;20029;-52
2021/07/07 04:48:58;;;;;;;7.40;2.53;;;;;;;;;;5043502;28;20099;-56
2021/07/07 04:51:29;;;;;;;12.30;2.67;;;;;;;;;;5042825;28;20045;-58
2021/07/07 04:53:56;;;;;;;6.70;2.28;;;;;;;;;;5043697;28;20049;-57
2021/07/07 04:56:22;;;;;;;10.80;2.67;;;;;;;;;;5038157;28;20041;-52
2021/07/07 04:58:49;;;;;;;8.55;2.75;;;;;;;;;;5042448;28;20037;-55
2021/07/07 05:01:15;;;;;;;7.00;2.83;;;;;;;;;;5033144;28;20045;-54
2021/07/07 05:03:44;;;;;;;6.70;2.83;;;;;;;;;;5022056;28;20041;-53
2021/07/07 05:06:12;;;;;;;5.22;2.75;;;;;;;;;;5020460;28;20034;-55
2021/07/07 05:08:39;;;;;;;9.07;3.43;;;;;;;;;;5043832;28;20049;-56
2021/07/07 05:11:05;;;;;;;10.35;3.03;;;;;;;;;;5021272;28;20037;-58
2021/07/07 05:13:32;;;;;;;9.48;3.70;;;;;;;;;;5026121;28;20025;-55
2021/07/07 05:15:59;;;;;;;10.82;3.33;;;;;;;;;;5043153;28;20057;-56
2021/07/07 05:18:25;;;;;;;7.50;2.97;;;;;;;;;;5020114;28;20045;-56
2021/07/07 05:20:52;;;;;;;11.68;3.72;;;;;;;;;;5023668;28;20061;-54
2021/07/07 05:23:20;;;;;;;6.65;2.75;;;;;;;;;;5014999;28;20139;-54
2021/07/07 05:25:47;;;;;;;9.13;2.80;;;;;;;;;;5030869;28;20047;-57
2021/07/07 05:28:13;;;;;;;12.95;3.40;;;;;;;;;;5031008;28;20304;-55
2021/07/07 05:30:40;;;;;;;8.55;3.22;;;;;;;;;;5031135;28;20056;-56
2021/07/07 05:33:08;;;;;;;12.00;2.97;;;;;;;;;;5009892;28;20038;-56
2021/07/07 05:35:35;;;;;;;7.43;2.67;;;;;;;;;;5006010;28;20057;-55
2021/07/07 05:38:01;;;;;;;7.70;3.08;;;;;;;;;;5015911;28;20065;-55
2021/07/07 05:40:30;;;;;;;7.25;2.95;;;;;;;;;;5024541;28;20308;-56
2021/07/07 05:42:57;;;;;;;8.70;3.15;;;;;;;;;;5008161;28;20076;-52
2021/07/07 05:45:25;;;;;;;6.95;3.20;;;;;;;;;;5027584;28;20049;-57
2021/07/07 05:47:52;;;;;;;9.20;3.67;;;;;;;;;;5019449;28;20041;-57
2021/07/07 05:50:19;;;;;;;8.10;3.45;;;;;;;;;;5021617;28;20037;-56
2021/07/07 05:52:45;;;;;;;9.75;3.00;;;;;;;;;;5017962;28;20037;-57
2021/07/07 05:55:12;;;;;;;7.85;3.40;;;;;;;;;;5011748;28;20042;-55
2021/07/07 05:57:40;;;;;;;6.90;2.95;;;;;;;;;;5029607;28;20048;-58
2021/07/07 06:00:09;;;;;;;7.53;3.07;;;;;;;;;;5021172;28;20060;-53
2021/07/07 06:02:35;;;;;;;;;;;;;;;;;;5039308;28;20049;-57
2021/07/07 06:05:03;;;;;;;7.40;2.85;;;;;;;;;;5000925;28;19925;-56
2021/07/07 06:07:29;;;;;;;15.18;3.50;;;;;;;;;;5016936;28;20053;-57
2021/07/07 06:09:55;;;;;;;10.88;4.05;;;;;;;;;;5013919;28;20053;-56
2021/07/07 06:12:22;;;;;;;10.32;3.25;;;;;;;;;;5021640;28;20063;-57
2021/07/07 06:14:50;;;;;;;16.15;3.30;;;;;;;;;;5017766;28;20045;-53
2021/07/07 06:17:16;;;;;;;16.10;3.07;;;;;;;;;;5020826;28;20030;-57
2021/07/07 06:19:43;;;;;;;8.88;3.40;;;;;;;;;;5017051;28;20043;-58
2021/07/07 06:22:09;;;;;;;10.15;3.15;;;;;;;;;;5018744;28;20038;-58
2021/07/07 06:24:36;;;;;;;10.05;3.42;;;;;;;;;;5014442;28;20049;-57
2021/07/07 06:27:02;;;;;;;8.85;3.25;;;;;;;;;;5002800;28;20038;-57
2021/07/07 06:29:29;;;;;;;8.05;3.17;;;;;;;;;;5002430;28;20037;-57
2021/07/07 06:31:57;;;;;;;19.13;3.55;;;;;;;;;;5019825;28;20034;-53
2021/07/07 06:34:23;;;;;;;10.33;3.03;;;;;;;;;;5018115;28;20053;-57
2021/07/07 06:36:50;;;;;;;10.68;3.53;;;;;;;;;;5036671;28;20275;-56
2021/07/07 06:39:16;;;;;;;11.00;3.53;;;;;;;;;;5024803;28;20397;-57
2021/07/07 06:41:44;;;;;;;11.63;3.58;;;;;;;;;;5017767;28;20164;-58
2021/07/07 06:44:10;;;;;;;11.50;3.27;;;;;;;;;;5014163;28;20064;-57
2021/07/07 06:46:39;;;;;;;10.80;3.22;;;;;;;;;;5005498;28;20034;-56
2021/07/07 06:49:07;;;;;;;7.57;3.03;;;;;;;;;;5004051;28;20046;-54
2021/07/07 06:51:35;;;;;;;13.07;3.50;;;;;;;;;;5016735;28;20061;-58
2021/07/07 06:54:02;;;;;;;9.57;3.28;;;;;;;;;;5003925;28;20078;-57
2021/07/07 06:56:28;;;;;;;11.98;3.40;;;;;;;;;;5028100;28;20045;-58
2021/07/07 06:58:56;;;;;;;12.55;3.35;;;;;;;;;;5039838;28;20038;-58
2021/07/07 07:01:23;;;;;;;18.77;3.00;;;;;;;;;;5036256;28;20034;-58
2021/07/07 07:03:50;;;;;;;8.52;2.92;;;;;;;;;;5023701;28;20033;-59
2021/07/07 07:06:17;;;;;;;8.65;3.05;;;;;;;;;;5016229;28;20034;-55
2021/07/07 07:08:44;;;;;;;9.83;3.00;;;;;;;;;;5023880;28;20038;-59
2021/07/07 07:11:17;;;;;;;11.20;3.38;;;;;;;;;;5004830;28;20033;-58
2021/07/07 07:13:43;;;;;;;10.38;3.35;;;;;;;;;;5023294;28;20050;-54
2021/07/07 07:16:10;;;;;;;8.80;3.45;;;;;;;;;;5016166;28;20922;-52
2021/07/07 07:18:36;;;;;;;8.98;3.00;;;;;;;;;;5010419;28;20038;-52
2021/07/07 07:21:03;;;;;;;13.27;3.15;;;;;;;;;;5026622;28;20542;-58
2021/07/07 07:23:32;;;;;;;15.25;3.25;;;;;;;;;;5040913;28;20048;-51
2021/07/07 07:25:58;;;;;;;14.75;3.50;;;;;;;;;;5044641;28;20033;-52
2021/07/07 07:28:27;;;;;;;13.82;3.25;;;;;;;;;;5023981;28;20054;-53
2021/07/07 07:30:56;;;;;;;9.88;3.63;;;;;;;;;;5024054;28;20038;-50
2021/07/07 07:33:22;;;;;;;12.98;3.50;;;;;;;;;;5006942;28;20041;-50
2021/07/07 07:35:49;;;;;;;16.65;3.03;;;;;;;;;;5017558;28;20041;-54
2021/07/07 07:38:16;;;;;;;10.20;2.88;;;;;;;;;;5027957;28;20060;-54
2021/07/07 07:40:48;;;;;;;8.73;2.58;;;;;;;;;;5041996;28;20049;-51
2021/07/07 07:43:14;;;;;;;8.13;2.40;;;;;;;;;;5039887;28;20053;-53
2021/07/07 07:45:41;;;;;;;7.03;2.10;;;;;;;;;;5043266;28;20056;-53
2021/07/07 07:48:08;;;;;;;12.23;2.28;;;;;;;;;;5039756;28;20176;-54
2021/07/07 07:50:34;;;;;;;11.57;2.25;;;;;;;;;;5042889;28;20030;-54
2021/07/07 07:53:00;;;;;;;9.95;2.03;;;;;;;;;;5037495;28;20041;-52
2021/07/07 07:55:27;;;;;;;10.23;2.05;;;;;;;;;;5042586;28;20038;-53
2021/07/07 07:57:55;;;;;;;9.82;2.30;;;;;;;;;;5029524;28;20059;-50
2021/07/07 08:00:23;;;;;;;16.07;2.37;;;;;;;;;;5045101;28;20034;-53
2021/07/07 08:02:50;;;;;;;8.80;2.10;;;;;;;;;;5023795;28;20042;-51
2021/07/07 08:05:16;;;;;;;7.90;2.22;;;;;;;;;;5006767;28;20034;-54
2021/07/07 08:07:43;;;;;;;6.50;1.88;;;;;;;;;;5006881;28;20115;-56
2021/07/07 08:10:11;;;;;;;10.45;2.47;;;;;;;;;;5021541;28;20029;-50
2021/07/07 08:12:38;;;;;;;8.43;2.60;;;;;;;;;;5042268;28;20041;-54
2021/07/07 08:15:07;;;;;;;10.95;2.15;;;;;;;;;;5022706;28;20049;-55
2021/07/07 08:17:33;;;;;;;9.32;2.50;;;;;;;;;;5041042;28;20069;-55
2021/07/07 08:20:00;;;;;;;11.73;2.20;;;;;;;;;;5039231;28;20041;-56
2021/07/07 08:22:26;;;;;;;9.27;2.45;;;;;;;;;;5041367;28;20045;-52
2021/07/07 08:24:53;;;;;;;8.73;2.42;;;;;;;;;;5028834;28;20041;-51
2021/07/07 08:27:20;;;;;;;6.50;1.95;;;;;;;;;;5006036;28;20057;-52
2021/07/07 08:29:46;;;;;;;8.75;2.55;;;;;;;;;;5026889;28;20041;-53
2021/07/07 08:32:14;;;;;;;12.05;2.40;;;;;;;;;;5025077;28;20087;-53
2021/07/07 08:34:43;;;;;;;8.50;1.80;;;;;;;;;;5023429;28;20060;-56
2021/07/07 08:37:12;;;;;;;7.53;1.63;;;;;;;;;;5024834;28;20037;-55
2021/07/07 08:39:39;;;;;;;12.35;1.80;;;;;;;;;;5021521;28;20040;-51
2021/07/07 08:42:08;;;;;;;7.18;2.15;;;;;;;;;;5026440;28;20094;-55
2021/07/07 08:44:35;;;;;;;8.63;1.77;;;;;;;;;;5020954;28;20047;-54
2021/07/07 08:47:01;;;;;;;8.68;2.08;;;;;;;;;;5004894;28;20038;-56
2021/07/07 08:49:29;;;;;;;6.78;1.65;;;;;;;;;;5005306;28;20049;-56
2021/07/07 08:51:55;;;;;;;5.32;1.65;;;;;;;;;;5004646;28;20054;-52
2021/07/07 08:54:22;;;;;;;7.82;1.85;;;;;;;;;;5015111;28;20124;-51
2021/07/07 08:56:49;;;;;;;4.43;1.70;;;;;;;;;;5023354;28;20057;-55
2021/07/07 08:59:16;;;;;;;8.30;1.73;;;;;;;;;;5019424;28;20029;-54
2021/07/07 09:02:02;;;;;;;8.38;1.85;;;;;;;;;;5032414;28;20045;-55
2021/07/07 09:04:32;;;;;;;6.50;1.48;;;;;;;;;;4998118;28;20125;-56
2021/07/07 09:06:59;;;;;;;7.07;1.50;;;;;;;;;;4993737;28;20062;-58
2021/07/07 09:09:34;;;;;;;4.78;1.40;;;;;;;;;;5013414;28;20057;-56
2021/07/07 09:12:00;;;;;;;8.75;1.52;;;;;;;;;;4994574;28;20051;-57
2021/07/07 09:14:32;;;;;;;9.65;1.70;;;;;;;;;;4982634;28;20049;-57
2021/07/07 09:16:59;;;;;;;5.65;1.48;;;;;;;;;;4977896;28;20059;-56
2021/07/07 09:19:26;;;;;;;5.20;1.83;;;;;;;;;;4987421;28;20049;-56
2021/07/07 09:21:56;;;;;;;6.32;1.65;;;;;;;;;;4987136;28;20038;-56
2021/07/07 09:24:24;;;;;;;5.78;1.80;;;;;;;;;;4983120;28;20042;-57
2021/07/07 09:26:51;;;;;;;;;;;;;;;;;;4971989;28;20118;-57
2021/07/07 09:29:29;;;;;;;6.85;1.20;;;;;;;;;;4961497;28;19922;-55
2021/07/07 09:31:56;;;;;;;7.65;1.80;;;;;;;;;;4983514;28;20116;-58
2021/07/07 09:34:22;;;;;;;5.85;1.48;;;;;;;;;;4982361;28;20047;-56
2021/07/07 09:36:51;;;;;;;8.10;1.80;;;;;;;;;;4979105;28;20086;-58
2021/07/07 09:39:20;;;;;;;3.95;1.42;;;;;;;;;;4971237;28;20070;-57
2021/07/07 09:41:48;;;;;;;9.23;1.80;;;;;;;;;;4977350;28;20038;-56
2021/07/07 09:44:15;;;;;;;;;;;;;;;;;;5011873;28;20050;-57
2021/07/07 09:46:41;;;;;;;12.40;1.42;;;;;;;;;;4999775;28;19921;-59
2021/07/07 09:49:08;;;;;;;13.60;1.55;;;;;;;;;;4993074;28;20046;-57
2021/07/07 09:51:34;;;;;;;9.20;1.65;;;;;;;;;;5001236;28;20042;-56
2021/07/07 09:54:01;;;;;;;11.13;2.17;;;;;;;;;;4996632;28;20046;-58
2021/07/07 09:56:29;;;;;;;3.45;1.25;;;;;;;;;;4981808;28;20071;-58
2021/07/07 09:58:56;;;;;;;3.05;1.40;;;;;;;;;;5008022;28;20062;-56
2021/07/07 10:01:22;;;;;;;5.60;1.33;;;;;;;;;;5018415;28;20153;-56
2021/07/07 10:03:51;;;;;;;10.10;1.40;;;;;;;;;;5004425;28;20041;-58
2021/07/07 10:06:18;;;;;;;4.57;1.40;;;;;;;;;;5020514;28;20042;-56
2021/07/07 10:08:45;;;;;;;4.22;1.27;;;;;;;;;;5018415;28;20049;-58
2021/07/07 10:11:12;;;;;;;9.07;1.55;;;;;;;;;;5017351;28;20074;-54
2021/07/07 10:13:40;;;;;;;5.10;1.63;;;;;;;;;;5010674;28;20038;-57
2021/07/07 10:16:06;;;;;;;6.57;1.30;;;;;;;;;;5000310;28;20053;-57
2021/07/07 10:18:33;;;;;;;3.78;1.50;;;;;;;;;;4998015;28;20046;-58
2021/07/07 10:21:00;;;;;;;4.53;1.30;;;;;;;;;;5001551;28;20066;-58
2021/07/07 10:23:26;;;;;;;7.18;1.60;;;;;;;;;;4999028;28;20065;-55
2021/07/07 10:25:53;;;;;;;8.40;1.42;;;;;;;;;;5001661;28;20061;-58
2021/07/07 10:28:20;;;;;;;5.95;1.70;;;;;;;;;;4998858;28;20062;-57
2021/07/07 10:30:56;;;;;;;6.47;1.48;;;;;;;;;;5000491;28;20054;-59
2021/07/07 10:33:23;;;;;;;3.17;1.10;;;;;;;;;;5000475;28;20033;-58
2021/07/07 10:35:50;;;;;;;5.38;1.55;;;;;;;;;;5016685;28;20054;-58
2021/07/07 10:38:16;;;;;;;2.72;1.30;;;;;;;;;;5036715;28;20092;-57
2021/07/07 10:40:48;;;;;;;7.28;1.30;;;;;;;;;;4998186;28;20046;-58
2021/07/07 10:43:25;;;;;;;4.75;1.17;;;;;;;;;;4998307;28;20038;-58
2021/07/07 10:45:52;;;;;;;9.10;1.95;;;;;;;;;;5012664;28;20050;-56
2021/07/07 10:48:28;;;;;;;5.65;1.67;;;;;;;;;;5037773;28;20029;-58
2021/07/07 10:50:55;;;;;;;4.75;1.20;;;;;;;;;;5032735;28;20095;-58
2021/07/07 10:53:23;;;;;;;7.17;1.30;;;;;;;;;;5020382;28;20111;-55
2021/07/07 10:55:49;;;;;;;8.18;1.50;;;;;;;;;;5013564;28;20049;-58
2021/07/07 10:58:23;;;;;;;6.18;1.40;;;;;;;;;;5001359;28;20273;-57
2021/07/07 11:00:50;;;;;;;6.93;1.60;;;;;;;;;;5000830;28;20049;-57
2021/07/07 11:03:20;;;;;;;3.33;1.25;;;;;;;;;;5021384;28;20128;-59
2021/07/07 11:05:48;;;;;;;4.90;1.35;;;;;;;;;;5018595;28;20107;-60
2021/07/07 11:08:17;;;;;;;7.03;1.55;;;;;;;;;;5040155;28;20056;-57
2021/07/07 11:10:54;;;;;;;5.93;1.38;;;;;;;;;;5020040;28;20048;-59
2021/07/07 11:13:20;;;;;;;14.80;1.80;;;;;;;;;;5040046;28;20062;-59
2021/07/07 11:15:47;;;;;;;4.68;1.40;;;;;;;;;;5032233;28;20038;-59
2021/07/07 11:18:18;;;;;;;6.38;1.50;;;;;;;;;;5021056;28;20145;-59
2021/07/07 11:21:03;;;;;;;6.18;1.20;;;;;;;;;;5036551;28;20096;-59
2021/07/07 11:23:30;;;;;;;5.38;1.30;;;;;;;;;;5041912;28;20041;-59
2021/07/07 11:25:56;;;;;;;5.55;1.50;;;;;;;;;;5036044;28;20033;-58
2021/07/07 11:28:22;;;;;;;6.15;1.23;;;;;;;;;;5021904;28;20046;-58
2021/07/07 11:30:49;;;;;;;5.28;1.35;;;;;;;;;;5003008;28;20044;-59
2021/07/07 11:33:15;;;;;;;5.78;1.15;;;;;;;;;;5023081;28;20062;-58
2021/07/07 11:35:42;;;;;;;5.78;1.48;;;;;;;;;;5007007;28;20057;-59
2021/07/07 11:38:14;;;;;;;6.75;1.50;;;;;;;;;;5022016;28;20053;-59
2021/07/07 11:40:42;;;;;;;8.07;1.58;;;;;;;;;;5023162;28;20049;-59
2021/07/07 11:43:10;;;;;;;4.80;1.30;;;;;;;;;;5017866;28;20056;-58
2021/07/07 11:45:37;;;;;;;7.75;1.40;;;;;;;;;;5026407;28;20115;-59
2021/07/07 11:48:08;;;;;;;9.93;1.40;;;;;;;;;;5039321;28;20045;-59
2021/07/07 11:50:36;;;;;;;5.05;1.45;;;;;;;;;;5043592;28;20045;-59
2021/07/07 11:53:04;;;;;;;5.07;1.70;;;;;;;;;;5028093;28;20070;-59
2021/07/07 11:55:55;;;;;;;6.60;1.52;;;;;;;;;;5006596;28;20061;-59
2021/07/07 11:58:25;;;;;;;5.70;1.50;;;;;;;;;;4999251;28;20050;-59
2021/07/07 12:00:53;;;;;;;8.95;1.60;;;;;;;;;;4987448;28;20066;-59
2021/07/07 12:03:20;;;;;;;6.03;1.45;;;;;;;;;;4983862;28;20041;-59
2021/07/07 12:05:50;;;;;;;4.43;1.35;;;;;;;;;;4985248;28;20039;-58
2021/07/07 12:08:17;;;;;;;5.70;1.60;;;;;;;;;;4983772;28;20149;-59
2021/07/07 12:10:45;;;;;;;4.43;1.50;;;;;;;;;;5023696;28;20045;-58
2021/07/07 12:13:21;;;;;;;8.65;1.58;;;;;;;;;;5038938;28;20033;-59
2021/07/07 12:15:48;;;;;;;7.68;1.52;;;;;;;;;;5018991;28;20108;-60
2021/07/07 12:18:23;;;;;;;2.40;1.20;;;;;;;;;;5004915;28;20045;-59
2021/07/07 12:20:49;;;;;;;4.82;1.60;;;;;;;;;;5030541;28;20045;-59
2021/07/07 12:23:16;;;;;;;11.88;1.50;;;;;;;;;;5035972;28;20038;-59
2021/07/07 12:25:42;;;;;;;5.55;1.40;;;;;;;;;;5007582;28;20037;-60
2021/07/07 12:28:10;;;;;;;4.90;1.35;;;;;;;;;;5020806;28;20049;-59
2021/07/07 12:30:37;;;;;;;4.55;1.60;;;;;;;;;;5026067;28;20041;-59
2021/07/07 12:33:04;;;;;;;5.75;1.48;;;;;;;;;;5041759;28;20037;-58
2021/07/07 12:35:31;;;;;;;3.95;1.13;;;;;;;;;;5020642;28;20049;-59
2021/07/07 12:37:58;;;;;;;9.00;1.60;;;;;;;;;;5022472;28;20123;-59
2021/07/07 12:40:29;;;;;;;14.40;1.67;;;;;;;;;;5035728;28;20099;-59
2021/07/07 12:43:07;;;;;;;8.00;1.83;;;;;;;;;;5025948;28;20057;-59
2021/07/07 12:45:35;;;;;;;5.03;1.60;;;;;;;;;;5004334;28;20046;-59
2021/07/07 12:48:03;;;;;;;3.45;1.27;;;;;;;;;;5005485;28;20069;-59
2021/07/07 12:50:34;;;;;;;3.78;1.52;;;;;;;;;;5033533;28;20099;-59
2021/07/07 12:53:01;;;;;;;4.82;1.45;;;;;;;;;;5041756;28;20048;-59
2021/07/07 12:55:28;;;;;;;14.77;1.52;;;;;;;;;;5009602;28;20081;-59
2021/07/07 12:57:59;;;;;;;5.25;1.30;;;;;;;;;;5004798;28;20042;-59
2021/07/07 13:00:37;;;;;;;2.55;1.33;;;;;;;;;;5030577;28;20037;-60
2021/07/07 13:03:04;;;;;;;8.80;1.55;;;;;;;;;;5025654;28;20049;-60
2021/07/07 13:05:32;;;;;;;5.57;1.55;;;;;;;;;;5013468;28;20038;-59
2021/07/07 13:07:59;;;;;;;5.72;1.55;;;;;;;;;;5021886;28;20056;-59
2021/07/07 13:10:30;;;;;;;4.85;1.48;;;;;;;;;;5033143;28;20044;-59
2021/07/07 13:12:56;;;;;;;3.15;1.50;;;;;;;;;;5038273;28;20058;-59
2021/07/07 13:15:23;;;;;;;8.57;1.45;;;;;;;;;;5006447;28;20044;-59
2021/07/07 13:18:00;;;;;;;4.65;1.50;;;;;;;;;;5042896;28;20049;-59
2021/07/07 13:20:27;;;;;;;6.05;1.70;;;;;;;;;;5020874;28;20066;-59
2021/07/07 13:23:00;;;;;;;4.17;1.60;;;;;;;;;;5023561;28;20045;-59
2021/07/07 13:25:27;;;;;;;10.73;2.38;;;;;;;;;;5035469;28;20048;-59
2021/07/07 13:27:53;;;;;;;4.53;1.77;;;;;;;;;;5006216;28;20056;-59
2021/07/07 13:30:26;;;;;;;6.60;1.60;;;;;;;;;;5005173;28;20034;-59
2021/07/07 13:32:53;;;;;;;7.40;1.42;;;;;;;;;;5039795;28;20038;-59
2021/07/07 13:35:23;;;;;;;5.25;1.65;;;;;;;;;;5022895;28;20049;-59
2021/07/07 13:37:51;;;;;;;5.63;1.63;;;;;;;;;;5000418;28;20104;-59
2021/07/07 13:40:19;;;;;;;9.05;1.75;;;;;;;;;;5007481;28;20085;-59
2021/07/07 13:42:46;;;;;;;3.55;1.60;;;;;;;;;;5033459;28;20056;-59
2021/07/07 13:45:14;;;;;;;6.47;1.70;;;;;;;;;;5038697;28;20099;-59
2021/07/07 13:47:41;;;;;;;7.80;1.90;;;;;;;;;;5019390;28;20050;-60
2021/07/07 13:50:08;;;;;;;6.25;2.17;;;;;;;;;;5021479;28;20054;-59
2021/07/07 13:52:36;;;;;;;4.50;1.70;;;;;;;;;;5029012;28;20058;-60
2021/07/07 13:55:03;;;;;;;5.57;1.75;;;;;;;;;;5011945;28;20037;-59
2021/07/07 13:57:30;;;;;;;5.20;1.58;;;;;;;;;;5034602;28;20058;-59
2021/07/07 13:59:57;;;;;;;3.55;1.40;;;;;;;;;;5023238;28;20081;-58
2021/07/07 14:02:24;;;;;;;4.43;1.40;;;;;;;;;;5006418;28;20033;-56
2021/07/07 14:04:50;;;;;;;7.47;1.52;;;;;;;;;;5037502;28;20090;-59
2021/07/07 14:07:17;;;;;;;7.43;1.50;;;;;;;;;;5015682;28;20042;-59
2021/07/07 14:09:45;;;;;;;2.83;1.40;;;;;;;;;;5010547;28;20038;-60
2021/07/07 14:12:11;;;;;;;7.80;1.33;;;;;;;;;;5016513;28;20127;-58
2021/07/07 14:14:38;;;;;;;6.70;1.60;;;;;;;;;;4999890;28;20046;-58
2021/07/07 14:17:05;;;;;;;6.10;1.80;;;;;;;;;;5002007;28;20145;-59
2021/07/07 14:19:35;;;;;;;3.92;1.42;;;;;;;;;;5016619;28;20044;-59
2021/07/07 14:22:02;;;;;;;10.68;1.60;;;;;;;;;;5005665;28;20030;-59
2021/07/07 14:24:28;;;;;;;6.35;1.42;;;;;;;;;;5015147;28;20042;-59
2021/07/07 14:26:56;;;;;;;6.30;1.67;;;;;;;;;;5000399;28;20053;-59
2021/07/07 14:29:22;;;;;;;10.40;1.60;;;;;;;;;;4998286;28;20046;-59
2021/07/07 14:31:51;;;;;;;7.40;1.70;;;;;;;;;;5001194;28;20124;-59
2021/07/07 14:34:18;;;;;;;4.88;1.77;;;;;;;;;;4998772;28;20110;-59
2021/07/07 14:36:45;;;;;;;4.07;1.58;;;;;;;;;;5002038;28;20030;-59
2021/07/07 14:39:11;;;;;;;8.10;2.22;;;;;;;;;;5005101;28;20037;-59
2021/07/07 14:41:39;;;;;;;5.25;1.80;;;;;;;;;;5022465;28;20038;-59
2021/07/07 14:44:07;;;;;;;4.95;1.83;;;;;;;;;;5019383;28;20115;-59
2021/07/07 14:46:35;;;;;;;4.20;1.35;;;;;;;;;;5025237;28;20049;-59